• Join FlightAware (Why Join?)
  • Login
  • US Flag 
11:46AM EST


 

Airport Tracker/Info


-or-


 

Live Flight TrackerFlight Track Log ✈ SWA1810 ✈ 23-Apr-2013 ✈ KBWI - KCMH

Flight Track Log - Related Links

Times and Time Zones

All times are in EDT time to prevent confusion due to time zone crossing. See the SWA1810 flight status page for this flight to view local times or setup timezone preferences in your user account.

Time Position Orientation Groundspeed Altitude Reporting Facility
EDT Latitude Longitude Course Direction KTS MPH feet Rate Location/Type
11:04AM 39.1333 -76.6833 211° Southwest 213 245 2,700  Level Potomac TRACON
11:05AM 39.1833 -76.7500 314° West 260 299 5,500 2,100 Climbing Potomac TRACON
11:06AM 39.2167 -76.8167 303° West 273 314 6,900 720 Climbing Potomac TRACON
11:07AM 39.2167 -76.9167 270° West 271 312 7,000 600 Climbing Potomac TRACON
11:08AM 39.2167 -77.0167 270° West 268 308 8,200 2,640 Climbing Potomac TRACON
11:09AM 39.0768 -77.2496 211° Southwest  Level FlightAware Approximate
11:10AM 39.1358 -77.2211 243° Southwest 284 327 15,900  Level Washington Center
11:11AM 39.0925 -77.3325 243° Southwest 316 364 19,000 3,240 Climbing Washington Center
11:12AM 39.0739 -77.4658 260° West 349 402 22,400 3,000 Climbing Washington Center
11:13AM 39.0575 -77.5858 260° West 372 428 25,100 2,580 Climbing Washington Center
11:14AM 39.0339 -77.7428 259° West 401 461 27,700 2,400 Climbing Washington Center
11:15AM 39.0147 -77.8706 259° West 412 474 29,900 1,140 Climbing Washington Center
11:16AM 38.9911 -78.0167 258° West 412 474 30,000  Climbing Washington Center
11:17AM 38.9694 -78.1575 259° West 412 474 30,000  Level Washington Center
11:18AM 38.9622 -78.2986 266° West 407 468 30,000  Level Washington Center
11:19AM 38.9672 -78.4403 273° West 402 463 30,000  Level Washington Center
11:20AM 38.9722 -78.5819 273° West 402 463 30,000  Level Washington Center
11:21AM 38.9767 -78.7292 272° West 402 463 30,000  Level Washington Center
11:22AM 38.9792 -78.8708 271° West 402 463 30,000  Level Washington Center
11:23AM 38.9836 -79.0097 272° West 402 463 30,000  Level Washington Center
11:24AM 38.9878 -79.1517 272° West 402 463 30,000  Level Washington Center
11:25AM 38.9922 -79.2853 272° West 402 463 30,000  Level Washington Center
11:26AM 38.9942 -79.4244 271° West 397 457 30,000 540 Level Washington Center
11:27AM 38.9981 -79.5633 272° West 397 457 31,100 960 Climbing Washington Center
11:28AM 38.9997 -79.6997 271° West 397 457 32,000 420 Climbing Washington Center
11:29AM 39.0008 -79.8442 271° West 383 441 32,000  Level Washington Center
11:31AM 39.0039 -80.0722 271° West 368 423 32,000  Level Indianapolis Center
11:32AM 39.0061 -80.2011 271° West 365 420 32,000  Level Indianapolis Center
11:33AM 39.0072 -80.3317 271° West 364 419 32,000  Level Indianapolis Center
11:34AM 39.0103 -80.4619 272° West 365 420 32,000  Level Indianapolis Center
11:35AM 39.0111 -80.5917 271° West 365 420 32,000  Level Indianapolis Center
11:36AM 39.0133 -80.7439 271° West 358 412 32,000 -540 Level Indianapolis Center
11:37AM 39.0353 -80.8639 283° West 355 409 31,000 -1,500 Descending Indianapolis Center
11:38AM 39.0786 -80.9706 298° West 341 392 29,000 -2,220 Descending Indianapolis Center
11:39AM 39.1258 -81.0831 298° West 356 410 26,500 -2,400 Descending Indianapolis Center
11:40AM 39.1697 -81.1997 296° West 364 419 24,100 -2,100 Descending Indianapolis Center
11:41AM 39.2142 -81.3211 295° West 374 430 22,300 -1,860 Descending Indianapolis Center
11:42AM 39.2672 -81.4642 296° West 372 428 20,400 -1,200 Descending Indianapolis Center
11:43AM 39.3117 -81.5844 296° West 373 429 19,900 -540 Descending Indianapolis Center
11:44AM 39.3556 -81.7033 296° West 370 426 19,400 -540 Descending Indianapolis Center
11:45AM 39.3992 -81.8219 295° West 368 423 18,900 -660 Descending Indianapolis Center
11:46AM 39.4428 -81.9411 295° West 369 425 18,100 -960 Descending Indianapolis Center
11:47AM 39.4842 -82.0564 295° West 358 412 17,000 -1,620 Descending Indianapolis Center
11:47AM 39.5000 -82.0997 295° West 349 402 16,000 -2,520 Descending Indianapolis Center
11:48AM 39.5283 -82.1783 295° West 345 397 14,400 -2,400 Descending Indianapolis Center
11:48AM 39.5428 -82.2203 294° West 338 389 13,600 -2,100 Descending Indianapolis Center
11:49AM 39.5681 -82.2864 296° West 332 382 12,300 -1,740 Descending Indianapolis Center
11:50AM 39.5861 -82.3331 297° West 324 373 11,700 -1,200 Descending Indianapolis Center
11:50AM 39.6219 -82.4261 297° West 311 358 10,800 -960 Descending Indianapolis Center
11:51AM 39.6467 -82.4892 297° West 309 356 10,100 -840 Descending Indianapolis Center
11:52AM 39.6597 -82.5247 296° West 310 357 10,000 -120 Descending Indianapolis Center
11:52AM 39.6864 -82.5903 298° West 311 358 10,000  Level Indianapolis Center
11:53AM 39.6992 -82.6239 296° West 308 354 10,000 -900 Level Indianapolis Center
11:53AM 39.7233 -82.6853 297° West 298 343 9,100 -1,500 Descending Indianapolis Center
11:54AM 39.7406 -82.7286 297° West 275 316 8,400 -1,680 Descending Indianapolis Center
11:54AM 39.7625 -82.7903 295° West 279 321 7,400 -1,380 Descending Indianapolis Center
11:55AM 39.7722 -82.8161 296° West 270 311 7,000 -1,380 Descending Indianapolis Center
11:55AM 39.7969 -82.8767 298° West 269 310 6,000 -1,140 Descending Indianapolis Center
11:56AM 39.8083 -82.9017 301° West 262 302 5,900 -540 Descending Indianapolis Center
11:56AM 39.8364 -82.9478 308° West 248 285 5,500 -600 Descending Indianapolis Center
11:57AM 39.8478 -82.9686 305° West 216 249 5,300 -540 Descending Indianapolis Center
11:57AM 39.8714 -83.0103 306° West 222 255 5,000 -300 Descending Indianapolis Center
11:58AM 39.8814 -83.0294 304° West 207 238 5,000  Level Indianapolis Center
11:59AM 39.9297 -83.0569 336° Northwest 217 250 5,000 -300 Level Indianapolis Center
11:59AM 39.9711 -83.0650 352° North 204 235 4,500 -1,260 Descending Indianapolis Center
12:00PM 40.0025 -83.0097 53° Northeast 200 230 2,700 -1,440 Descending Indianapolis Center
12:02PM 39.9978 -82.9511 96° East 172 198 1,600 -840 Descending Indianapolis Center
12:03PM 39.9936 -82.8983 96° East 161 185 1,100 -540 Descending Indianapolis Center